Terminal Aerodrome Forecast
Issued by NWS Shreveport, LA

Home | Current Version | Previous Version | Text Only | Print | Product List | Glossary On
Versions: 1 2 3 4 5 6 7 8 9 10 11 12
079
FTUS44 KSHV 272334
TAFELD
TAF
KELD 272334Z 2800/2824 20006KT P6SM FEW060 BKN250
     FM280100 20003KT P6SM BKN250
     FM281300 21006KT P6SM VCTS SCT050CB BKN100 BKN250
     FM281800 23009KT P6SM SCT050 BKN080 BKN150=

USA.gov is the U.S. government's official web portal to all federal, state and local government web resources and services.